Terminal Aerodrome Forecast
Issued by NWS Burlington, VT

Home | Current Version | Previous Version | Text Only | Print | Product List | Glossary On
Versions: 1 2 3 4 5 6 7 8 9 10 11 12 13 14 15 16 17 18 19 20 21 22 23
000
FTUS41 KBTV 191134
TAFBTV
TAF
KBTV 191134Z 1912/2012 34008KT P6SM -SHSN OVC015
     FM191700 35005KT P6SM OVC020
     FM200200 36003KT P6SM BKN025=

USA.gov is the U.S. government's official web portal to all federal, state and local government web resources and services.